Time;durP1;ratioP1;P1;durP2;ratioP2;P2;SDS_P1;SDS_P2;PMS_P1;PMS_P2;Temp;Humidity;BMP_temperature;BMP_pressure;BME280_temperature;BME280_humidity;BME280_pressure;Samples;Min_cycle;Max_cycle;Signal;HPM_P1;HPM_P2
2024/04/05 00:01:32;;;;;;;8.70;6.40;;;;;;;11.84;100.00;100049.52;105971;1268;97892;-86
2024/04/05 00:04:18;;;;;;;9.40;6.90;;;;;;;11.86;100.00;100050.98;106033;1267;98438;-85
2024/04/05 00:07:04;;;;;;;10.50;7.10;;;;;;;11.89;100.00;100048.65;105848;1270;102670;-88
2024/04/05 00:09:49;;;;;;;9.40;6.40;;;;;;;11.89;100.00;100047.65;106024;1265;99157;-87
2024/04/05 00:12:35;;;;;;;12.70;7.70;;;;;;;11.92;100.00;100043.06;105900;1264;97986;-88
2024/04/05 00:15:21;;;;;;;9.20;7.40;;;;;;;11.92;100.00;100039.93;105956;1269;98398;-87
2024/04/05 00:18:07;;;;;;;7.20;6.30;;;;;;;11.93;100.00;100037.11;106044;1264;98494;-89
2024/04/05 00:20:53;;;;;;;9.70;6.70;;;;;;;11.94;100.00;100036.09;106312;1266;101357;-88
2024/04/05 00:23:38;;;;;;;9.80;7.10;;;;;;;11.94;100.00;100041.05;106705;1263;99095;-87
2024/04/05 00:26:24;;;;;;;10.10;7.40;;;;;;;11.96;100.00;100040.30;106561;1265;98037;-86
2024/04/05 00:29:10;;;;;;;8.90;7.10;;;;;;;11.96;100.00;100041.33;106613;1265;97975;-87
2024/04/05 00:31:56;;;;;;;8.60;7.30;;;;;;;11.98;100.00;100044.71;106535;1265;97650;-88
2024/04/05 00:34:42;;;;;;;10.60;6.30;;;;;;;11.99;100.00;100043.48;106183;1268;102544;-86
2024/04/05 00:37:28;;;;;;;9.90;6.60;;;;;;;12.01;100.00;100043.77;106276;1264;100903;-87
2024/04/05 00:40:14;;;;;;;9.30;5.80;;;;;;;12.03;100.00;100044.21;105959;1270;99053;-89
2024/04/05 00:43:03;;;;;;;8.30;5.70;;;;;;;12.04;100.00;100045.94;105904;1269;97889;-87
2024/04/05 00:45:50;;;;;;;6.70;5.60;;;;;;;12.05;100.00;100051.35;105931;1264;96559;-86
2024/04/05 00:48:36;;;;;;;8.50;6.30;;;;;;;12.06;100.00;100050.39;105919;1264;101404;-87
2024/04/05 00:51:22;;;;;;;8.50;6.20;;;;;;;12.06;100.00;100049.65;106076;1264;99237;-87
2024/04/05 00:54:08;;;;;;;13.60;6.20;;;;;;;12.04;100.00;100053.00;106110;1267;98384;-87
2024/04/05 00:56:55;;;;;;;7.20;5.90;;;;;;;12.00;100.00;100059.52;106227;1264;97994;-87
2024/04/05 00:59:43;;;;;;;10.10;6.40;;;;;;;11.97;100.00;100061.19;105985;1265;98456;-87
2024/04/05 01:02:29;;;;;;;9.50;5.70;;;;;;;11.95;100.00;100066.52;105955;1263;103380;-87
2024/04/05 01:05:15;;;;;;;8.30;5.30;;;;;;;11.93;100.00;100071.43;106006;1265;107950;-87
2024/04/05 01:08:01;;;;;;;6.40;4.90;;;;;;;11.91;100.00;100075.85;106144;1263;98651;-87
2024/04/05 01:10:47;;;;;;;5.80;4.60;;;;;;;11.89;100.00;100079.87;105952;1266;98017;-88
2024/04/05 01:13:33;;;;;;;5.80;4.10;;;;;;;11.86;100.00;100077.96;106119;1264;98540;-87
2024/04/05 01:16:19;;;;;;;5.80;4.80;;;;;;;11.86;100.00;100082.84;105963;1270;102360;-87
2024/04/05 01:19:05;;;;;;;7.60;4.20;;;;;;;11.84;100.00;100083.08;106315;1265;99275;-88
2024/04/05 01:21:52;;;;;;;5.80;3.60;;;;;;;11.83;100.00;100087.75;105987;1264;98074;-89
2024/04/05 01:24:41;;;;;;;6.20;3.40;;;;;;;11.81;100.00;100094.39;106043;1268;98053;-88
2024/04/05 01:27:26;;;;;;;5.60;3.20;;;;;;;11.79;100.00;100089.56;105962;1264;98414;-86
2024/04/05 01:30:12;;;;;;;3.60;2.90;;;;;;;11.77;100.00;100086.76;106090;1265;101352;-87
2024/04/05 01:32:59;;;;;;;4.70;2.90;;;;;;;11.75;100.00;100089.90;106373;1265;99176;-87
2024/04/05 01:35:45;;;;;;;2.90;2.70;;;;;;;11.73;100.00;100092.79;106077;1264;97912;-87
2024/04/05 01:38:31;;;;;;;2.90;2.30;;;;;;;11.72;100.00;100095.97;106013;1269;97939;-88
2024/04/05 01:41:20;;;;;;;3.90;2.10;;;;;;;11.72;100.00;100097.82;106189;1267;97717;-87
2024/04/05 01:44:05;;;;;;;3.20;2.10;;;;;;;11.71;100.00;100100.76;105964;1265;102715;-87
2024/04/05 01:46:51;;;;;;;3.30;1.70;;;;;;;11.70;100.00;100103.14;106066;1268;99152;-87
2024/04/05 01:49:37;;;;;;;2.40;1.80;;;;;;;11.67;100.00;100109.00;106041;1271;98584;-88
2024/04/05 01:52:23;;;;;;;3.20;1.70;;;;;;;11.66;100.00;100111.14;105920;1268;98056;-88
2024/04/05 01:55:09;;;;;;;2.70;1.80;;;;;;;11.64;100.00;100111.83;105815;1263;97967;-88
2024/04/05 01:57:55;;;;;;;2.10;1.70;;;;;;;11.64;100.00;100111.17;105913;1266;102655;-89
2024/04/05 02:00:40;;;;;;;2.50;1.80;;;;;;;11.63;100.00;100109.65;106065;1266;99210;-88
2024/04/05 02:03:27;;;;;;;3.30;1.90;;;;;;;11.62;100.00;100118.18;106039;1264;98671;-88
2024/04/05 02:06:13;;;;;;;2.20;1.50;;;;;;;11.61;100.00;100124.83;105945;1263;98087;-87
2024/04/05 02:08:59;;;;;;;3.60;1.90;;;;;;;11.61;100.00;100127.70;105927;1268;98001;-89
2024/04/05 02:11:45;;;;;;;2.90;1.30;;;;;;;11.61;100.00;100129.85;106067;1268;101367;-88
2024/04/05 02:14:33;;;;;;;2.60;1.70;;;;;;;11.61;100.00;100133.62;105930;1264;99279;-89
2024/04/05 02:17:19;;;;;;;1.80;1.60;;;;;;;11.60;100.00;100141.04;106040;1269;97794;-88
2024/04/05 02:20:05;;;;;;;3.20;1.90;;;;;;;11.60;100.00;100134.27;106224;1264;99318;-88
2024/04/05 02:22:51;;;;;;;3.70;1.80;;;;;;;11.60;100.00;100136.16;105922;1264;98405;-86
2024/04/05 02:25:37;;;;;;;4.80;1.90;;;;;;;11.59;100.00;100140.05;105960;1268;101349;-87
2024/04/05 02:28:23;;;;;;;5.30;2.20;;;;;;;11.59;100.00;100143.48;106155;1264;100400;-86
2024/04/05 02:31:09;;;;;;;3.70;2.00;;;;;;;11.59;100.00;100145.29;106055;1268;98417;-87
2024/04/05 02:33:54;;;;;;;3.80;2.60;;;;;;;11.59;100.00;100144.74;106070;1264;97954;-86
2024/04/05 02:36:40;;;;;;;4.70;2.40;;;;;;;11.58;100.00;100139.75;106129;1264;98075;-88
2024/04/05 02:39:26;;;;;;;5.40;3.10;;;;;;;11.56;100.00;100143.95;106021;1266;102274;-86
2024/04/05 02:42:11;;;;;;;4.10;2.40;;;;;;;11.54;100.00;100143.52;106010;1264;99866;-87
2024/04/05 02:44:57;;;;;;;4.30;2.20;;;;;;;11.53;100.00;100144.82;106083;1268;98918;-88
2024/04/05 02:47:43;;;;;;;2.40;1.80;;;;;;;11.53;100.00;100145.77;106003;1267;98100;-86
2024/04/05 02:50:28;;;;;;;3.00;2.10;;;;;;;11.52;100.00;100141.89;105979;1264;98006;-87
2024/04/05 02:53:14;;;;;;;2.30;1.80;;;;;;;11.53;100.00;100143.63;105968;1266;102034;-87
2024/04/05 02:56:00;;;;;;;2.10;1.70;;;;;;;11.53;100.00;100145.38;106284;1267;100381;-87
2024/04/05 02:58:46;;;;;;;4.20;2.00;;;;;;;11.52;100.00;100147.46;105992;1268;97980;-87
2024/04/05 03:01:32;;;;;;;4.00;1.70;;;;;;;11.50;100.00;100147.40;105913;1273;97906;-87
2024/04/05 03:04:17;;;;;;;4.90;2.00;;;;;;;11.48;100.00;100149.05;105989;1264;97938;-86
2024/04/05 03:07:03;;;;;;;3.30;2.00;;;;;;;11.47;100.00;100153.67;106151;1269;102536;-87
2024/04/05 03:09:49;;;;;;;3.30;1.90;;;;;;;11.46;100.00;100162.05;106085;1269;99189;-87
2024/04/05 03:12:35;;;;;;;4.10;1.90;;;;;;;11.45;100.00;100168.48;105962;1268;98076;-87
2024/04/05 03:15:21;;;;;;;3.20;2.30;;;;;;;11.43;100.00;100176.61;106049;1264;97922;-88
2024/04/05 03:18:06;;;;;;;2.60;2.00;;;;;;;11.42;100.00;100181.43;105989;1269;97924;-86
2024/04/05 03:20:54;;;;;;;3.70;2.50;;;;;;;11.40;100.00;100183.50;106016;1264;102802;-86
2024/04/05 03:23:40;;;;;;;4.10;2.30;;;;;;;11.38;100.00;100185.64;106250;1267;99311;-87
2024/04/05 03:26:26;;;;;;;3.70;3.30;;;;;;;11.35;100.00;100186.28;106101;1268;98044;-87
2024/04/05 03:29:11;;;;;;;5.80;3.20;;;;;;;11.31;100.00;100188.16;106133;1264;97982;-86
2024/04/05 03:31:58;;;;;;;6.20;3.10;;;;;;;11.28;100.00;100188.91;106027;1264;98055;-87
2024/04/05 03:34:46;;;;;;;6.70;2.90;;;;;;;11.25;100.00;100188.23;106124;1264;103751;-87
2024/04/05 03:37:32;;;;;;;4.60;3.40;;;;;;;11.22;100.00;100189.38;106103;1264;100389;-87
2024/04/05 03:40:19;;;;;;;4.40;2.90;;;;;;;11.20;100.00;100193.04;106059;1264;98081;-86
2024/04/05 03:43:06;;;;;;;2.60;2.30;;;;;;;11.17;100.00;100193.81;106018;1270;98058;-86
2024/04/05 03:45:52;;;;;;;5.60;3.10;;;;;;;11.14;100.00;100196.89;106027;1267;97788;-87
2024/04/05 03:48:37;;;;;;;5.60;2.90;;;;;;;11.11;100.00;100201.95;106174;1265;101409;-88
2024/04/05 03:51:23;;;;;;;4.00;3.00;;;;;;;11.08;100.00;100201.52;106097;1264;100438;-87
2024/04/05 03:54:09;;;;;;;3.90;2.50;;;;;;;11.06;100.00;100205.35;105934;1269;98276;-87
2024/04/05 03:56:55;;;;;;;3.60;2.20;;;;;;;11.03;100.00;100212.64;106240;1268;97917;-87
2024/04/05 03:59:41;;;;;;;6.30;1.80;;;;;;;10.99;100.00;100215.45;106120;1264;97965;-86
2024/04/05 04:02:30;;;;;;;4.00;2.60;;;;;;;10.97;100.00;100218.33;105975;1269;101499;-86
2024/04/05 04:05:16;;;;;;;5.20;2.70;;;;;;;10.95;100.00;100223.60;106049;1264;100385;-87
2024/04/05 04:08:02;;;;;;;4.30;2.40;;;;;;;10.94;100.00;100223.02;106232;1263;106378;-87
2024/04/05 04:10:48;;;;;;;3.70;2.50;;;;;;;10.90;100.00;100222.38;106296;1269;98149;-88
2024/04/05 04:13:34;;;;;;;4.00;2.20;;;;;;;10.89;100.00;100234.70;106141;1267;98191;-86
2024/04/05 04:16:20;;;;;;;3.40;2.30;;;;;;;10.88;100.00;100243.73;106065;1264;102757;-87
2024/04/05 04:19:07;;;;;;;6.60;2.70;;;;;;;10.87;100.00;100244.95;105928;1264;99301;-89
2024/04/05 04:21:52;;;;;;;7.40;3.30;;;;;;;10.83;100.00;100241.91;106003;1264;98041;-88
2024/04/05 04:24:39;;;;;;;5.60;2.40;;;;;;;10.78;100.00;100252.48;106172;1270;97879;-86
2024/04/05 04:27:26;;;;;;;4.50;2.30;;;;;;;10.76;100.00;100260.30;106156;1264;95831;-86
2024/04/05 04:30:12;;;;;;;2.90;1.90;;;;;;;10.73;100.00;100264.27;105949;1264;102635;-87
2024/04/05 04:32:59;;;;;;;2.50;2.20;;;;;;;10.70;100.00;100271.96;106186;1266;99158;-86
2024/04/05 04:35:45;;;;;;;3.00;2.30;;;;;;;10.69;100.00;100273.69;106032;1264;98390;-86
2024/04/05 04:38:32;;;;;;;3.60;2.30;;;;;;;10.68;100.00;100278.66;106134;1270;98097;-87
2024/04/05 04:41:19;;;;;;;4.30;2.40;;;;;;;10.65;100.00;100284.95;106059;1268;98612;-88
2024/04/05 04:44:06;;;;;;;3.80;2.70;;;;;;;10.63;100.00;100285.59;105929;1267;101341;-86
2024/04/05 04:46:53;;;;;;;5.10;2.70;;;;;;;10.61;100.00;100284.88;105996;1269;99050;-86
2024/04/05 04:49:39;;;;;;;4.70;2.80;;;;;;;10.60;100.00;100283.19;105943;1264;99437;-86
2024/04/05 04:52:25;;;;;;;4.50;2.50;;;;;;;10.58;100.00;100284.36;106136;1267;97970;-87
2024/04/05 04:55:11;;;;;;;4.10;2.70;;;;;;;10.55;100.00;100286.05;105858;1264;97854;-84
2024/04/05 04:57:56;;;;;;;6.30;2.60;;;;;;;10.52;100.00;100282.84;106406;1264;101434;-90
2024/04/05 05:00:52;;;;;;;3.60;2.60;;;;;;;10.51;100.00;100288.18;106156;1273;100338;-93
2024/04/05 05:03:38;;;;;;;5.40;2.90;;;;;;;10.50;100.00;100293.45;106194;1264;99667;-90
2024/04/05 05:06:34;;;;;;;6.10;3.40;;;;;;;10.51;100.00;100301.27;106753;1263;98052;-89
2024/04/05 05:09:20;;;;;;;4.20;2.50;;;;;;;10.52;100.00;100312.14;106608;1264;97947;-89
2024/04/05 05:12:07;;;;;;;8.40;4.00;;;;;;;10.53;100.00;100321.06;106375;1263;101378;-90
2024/04/05 05:14:54;;;;;;;4.40;2.40;;;;;;;10.55;100.00;100319.14;106208;1264;100370;-88
2024/04/05 05:17:40;;;;;;;5.80;3.30;;;;;;;10.57;100.00;100320.61;105692;1268;99645;-83
2024/04/05 05:20:28;;;;;;;6.10;3.40;;;;;;;10.60;100.00;100321.91;105904;1267;98071;-82
2024/04/05 05:23:15;;;;;;;5.50;3.30;;;;;;;10.61;100.00;100320.77;105944;1264;98019;-83
2024/04/05 05:26:03;;;;;;;5.20;3.00;;;;;;;10.64;100.00;100328.77;105979;1264;101653;-82
2024/04/05 05:28:48;;;;;;;6.10;2.70;;;;;;;10.67;100.00;100336.64;105819;1268;100201;-81
2024/04/05 05:31:34;;;;;;;5.50;2.60;;;;;;;10.71;100.00;100336.91;105688;1264;99115;-82
2024/04/05 05:34:19;;;;;;;4.70;2.80;;;;;;;10.74;100.00;100346.51;105786;1266;98052;-82
2024/04/05 05:37:05;;;;;;;4.90;2.80;;;;;;;10.76;100.00;100350.61;105734;1268;98458;-82
2024/04/05 05:39:51;;;;;;;3.40;2.10;;;;;;;10.79;100.00;100359.40;105859;1266;103589;-81
2024/04/05 05:42:37;;;;;;;3.30;2.20;;;;;;;10.84;100.00;100364.23;105907;1264;99173;-86
2024/04/05 05:45:23;;;;;;;5.20;2.30;;;;;;;10.89;100.00;100371.15;105610;1270;100030;-86
2024/04/05 05:48:09;;;;;;;6.00;3.90;;;;;;;10.92;100.00;100376.34;105651;1267;97985;-84
2024/04/05 05:50:55;;;;;;;5.80;4.50;;;;;;;10.96;100.00;100371.95;105747;1268;99397;-85
2024/04/05 05:53:41;;;;;;;19.20;12.20;;;;;;;10.99;100.00;100375.06;105778;1264;102625;-84
2024/04/05 05:56:27;;;;;;;21.30;11.30;;;;;;;11.04;100.00;100379.77;105801;1264;100344;-83
2024/04/05 05:59:13;;;;;;;13.60;8.80;;;;;;;11.10;100.00;100385.87;106219;1264;98984;-88
2024/04/05 06:01:59;;;;;;;19.90;12.00;;;;;;;11.13;100.00;100389.68;105888;1268;97978;-84
2024/04/05 06:04:45;;;;;;;13.40;10.20;;;;;;;11.18;100.00;100393.55;105924;1266;98525;-86
2024/04/05 06:07:31;;;;;;;9.40;8.10;;;;;;;11.19;100.00;100397.69;105716;1264;101648;-87
2024/04/05 06:10:18;;;;;;;10.30;7.90;;;;;;;11.22;100.00;100400.67;105830;1265;100501;-84
2024/04/05 06:13:03;;;;;;;6.90;5.40;;;;;;;11.24;100.00;100402.88;105917;1268;97867;-88
2024/04/05 06:15:55;;;;;;;7.00;4.70;;;;;;;11.26;100.00;100409.63;105438;1269;98094;-83
2024/04/05 06:18:45;;;;;;;6.10;4.00;;;;;;;11.24;100.00;100414.13;105926;1267;98498;-87
2024/04/05 06:21:31;;;;;;;6.00;3.70;;;;;;;11.23;100.00;100418.91;105694;1264;101916;-86
2024/04/05 06:24:17;;;;;;;5.10;2.70;;;;;;;11.25;100.00;100424.73;106179;1264;100410;-88
2024/04/05 06:27:04;;;;;;;4.70;2.50;;;;;;;11.29;100.00;100423.17;106178;1265;98864;-86
2024/04/05 06:29:54;;;;;;;5.90;2.30;;;;;;;11.33;100.00;100423.77;105777;1271;97840;-85
2024/04/05 06:32:39;;;;;;;7.10;2.80;;;;;;;11.38;100.00;100423.14;106007;1268;96852;-86
2024/04/05 06:35:25;;;;;;;3.10;2.20;;;;;;;11.46;100.00;100425.10;105836;1266;101368;-87
2024/04/05 06:38:12;;;;;;;5.50;3.00;;;;;;;11.58;100.00;100429.02;106034;1268;100397;-89
2024/04/05 06:40:59;;;;;;;4.70;2.50;;;;;;;11.64;100.00;100428.48;105576;1264;100017;-84
2024/04/05 06:43:45;;;;;;;3.60;1.90;;;;;;;11.63;100.00;100428.69;106438;1267;98011;-89
2024/04/05 06:46:46;;;;;;;4.20;3.10;;;;;;;11.65;100.00;100430.35;105744;1264;97978;-85
2024/04/05 06:49:33;;;;;;;6.10;2.20;;;;;;;11.74;100.00;100435.04;105879;1267;102609;-84
2024/04/05 06:52:19;;;;;;;4.30;3.10;;;;;;;11.87;100.00;100437.67;106055;1268;100436;-85
2024/04/05 06:55:05;;;;;;;5.60;3.00;;;;;;;11.94;100.00;100447.91;105523;1263;98997;-87
2024/04/05 06:57:52;;;;;;;9.40;5.10;;;;;;;11.95;100.00;100454.69;105622;1265;98320;-86
2024/04/05 07:00:39;;;;;;;4.40;2.70;;;;;;;11.97;100.00;100452.43;107301;1266;97769;-87
2024/04/05 07:03:25;;;;;;;5.30;3.30;;;;;;;11.97;100.00;100455.28;105828;1269;101385;-85
2024/04/05 07:06:11;;;;;;;7.10;3.30;;;;;;;11.99;100.00;100458.98;105782;1268;100457;-84
2024/04/05 07:08:57;;;;;;;5.50;2.90;;;;;;;12.00;100.00;100466.65;105800;1267;98089;-86
2024/04/05 07:11:44;;;;;;;4.90;2.50;;;;;;;12.01;100.00;100471.18;105892;1268;98513;-84
2024/04/05 07:14:31;;;;;;;5.80;2.80;;;;;;;12.02;100.00;100476.85;105811;1268;98522;-83
2024/04/05 07:17:16;;;;;;;3.00;2.10;;;;;;;12.03;100.00;100483.55;105678;1264;102841;-82
2024/04/05 07:20:03;;;;;;;3.80;2.00;;;;;;;12.02;100.00;100486.52;105452;1268;100322;-83
2024/04/05 07:22:50;;;;;;;5.90;2.50;;;;;;;12.02;100.00;100489.00;106462;1266;100441;-83
2024/04/05 07:25:36;;;;;;;5.80;3.70;;;;;;;12.07;100.00;100485.30;105976;1277;97927;-88
2024/04/05 07:28:22;;;;;;;4.20;2.60;;;;;;;12.15;100.00;100487.75;105746;1270;98299;-84
2024/04/05 07:31:07;;;;;;;7.20;2.70;;;;;;;12.22;100.00;100494.59;105712;1265;102592;-85
2024/04/05 07:33:54;;;;;;;5.10;3.60;;;;;;;12.30;100.00;100499.05;105864;1264;100297;-85
2024/04/05 07:36:40;;;;;;;7.30;2.60;;;;;;;12.36;100.00;100506.11;105824;1264;98966;-86
2024/04/05 07:39:26;;;;;;;6.20;2.60;;;;;;;12.41;100.00;100509.80;106229;1262;97983;-85
2024/04/05 07:42:12;;;;;;;6.10;2.20;;;;;;;12.46;100.00;100510.14;105771;1263;98516;-84
2024/04/05 07:44:59;;;;;;;4.30;2.50;;;;;;;12.50;100.00;100516.65;106381;1264;102512;-89
2024/04/05 07:47:48;;;;;;;4.80;2.60;;;;;;;12.58;100.00;100521.69;106183;1264;99162;-88
2024/04/05 07:50:34;;;;;;;4.10;2.40;;;;;;;12.63;100.00;100523.39;105975;1264;98999;-87
2024/04/05 07:53:19;;;;;;;4.90;2.30;;;;;;;12.66;100.00;100526.91;106306;1269;98022;-86
2024/04/05 07:56:05;;;;;;;4.80;2.70;;;;;;;12.73;100.00;100529.05;105841;1268;98478;-84
2024/04/05 07:58:51;;;;;;;6.60;2.50;;;;;;;12.77;100.00;100533.31;105973;1264;102644;-85
2024/04/05 08:01:38;;;;;;;3.60;2.00;;;;;;;12.80;100.00;100536.15;105569;1267;100489;-85
2024/04/05 08:04:24;;;;;;;6.10;2.30;;;;;;;12.86;100.00;100536.58;105713;1264;98964;-88
2024/04/05 08:07:10;;;;;;;7.30;2.70;;;;;;;12.92;100.00;100540.48;106150;1264;97953;-81
2024/04/05 08:09:55;;;;;;;6.00;2.60;;;;;;;12.95;100.00;100543.55;106304;1264;98652;-81
2024/04/05 08:12:42;;;;;;;2.60;1.80;;;;;;;13.02;100.00;100541.20;106366;1264;102145;-80
2024/04/05 08:15:30;;;;;;;6.10;3.70;;;;;;;13.10;100.00;100542.73;106290;1262;99166;-81
2024/04/05 08:18:15;;;;;;;6.80;4.30;;;;;;;13.15;100.00;100543.24;106067;1264;98874;-79
2024/04/05 08:21:05;;;;;;;6.40;3.40;;;;;;;13.18;100.00;100546.61;105957;1267;98048;-81
2024/04/05 08:23:50;;;;;;;6.30;3.10;;;;;;;13.21;100.00;100553.43;106169;1264;97568;-82
2024/04/05 08:26:35;;;;;;;8.80;3.20;;;;;;;13.23;100.00;100554.88;106080;1264;102648;-80
2024/04/05 08:29:28;;;;;;;7.40;3.10;;;;;;;13.25;100.00;100558.13;106206;1262;99106;-81
2024/04/05 08:32:13;;;;;;;5.50;3.40;;;;;;;13.27;100.00;100563.16;106125;1264;99008;-80
2024/04/05 08:35:00;;;;;;;5.20;3.70;;;;;;;13.29;100.00;100567.80;106144;1264;97889;-79
2024/04/05 08:37:45;;;;;;;4.10;2.80;;;;;;;13.29;100.00;100570.86;105591;1270;98538;-80
2024/04/05 08:40:32;;;;;;;9.00;3.40;;;;;;;13.30;100.00;100571.06;106219;1264;101231;-80
2024/04/05 08:43:17;;;;;;;7.90;3.00;;;;;;;13.32;100.00;100577.04;106247;1264;100503;-80
2024/04/05 08:46:04;;;;;;;9.30;2.90;;;;;;;13.34;100.00;100583.58;105811;1269;99474;-80
2024/04/05 08:48:51;;;;;;;10.30;5.70;;;;;;;13.36;100.00;100586.73;105667;1264;97936;-84
2024/04/05 08:51:40;;;;;;;8.60;3.80;;;;;;;13.38;100.00;100586.39;105714;1264;298893;-87
2024/04/05 08:54:30;;;;;;;6.50;3.60;;;;;;;13.39;100.00;100585.08;105922;1263;102538;-85
2024/04/05 08:57:16;;;;;;;6.90;3.50;;;;;;;13.37;100.00;100587.10;106295;1265;100391;-88
2024/04/05 09:00:06;;;;;;;11.50;3.70;;;;;;;13.39;100.00;100589.78;106299;1267;98921;-88
2024/04/05 09:02:56;;;;;;;6.30;3.00;;;;;;;13.42;100.00;100593.98;106157;1269;97905;-84
2024/04/05 09:05:41;;;;;;;4.70;3.00;;;;;;;13.46;100.00;100594.73;105946;1269;98422;-86
2024/04/05 09:08:27;;;;;;;6.30;2.90;;;;;;;13.51;100.00;100595.94;105994;1264;102136;-80
2024/04/05 09:11:21;;;;;;;6.10;3.00;;;;;;;13.57;100.00;100597.73;105921;1264;100597;-87
2024/04/05 09:14:07;;;;;;;8.40;3.30;;;;;;;13.58;100.00;100595.98;106171;1263;100164;-90
2024/04/05 09:16:54;;;;;;;4.70;2.30;;;;;;;13.57;100.00;100598.67;105861;1270;98023;-84
2024/04/05 09:19:40;;;;;;;7.70;3.30;;;;;;;13.55;100.00;100601.73;106077;1264;98452;-87
2024/04/05 09:22:26;;;;;;;5.60;2.80;;;;;;;13.50;100.00;100603.81;105854;1267;102310;-82
2024/04/05 09:25:16;;;;;;;7.80;3.00;;;;;;;13.47;100.00;100606.44;105887;1269;99031;-82
2024/04/05 09:28:14;;;;;;;8.40;5.20;;;;;;;13.44;100.00;100606.20;105780;1267;98989;-85
2024/04/05 09:31:00;;;;;;;9.40;6.60;;;;;;;13.42;100.00;100607.61;105692;1267;98039;-84
2024/04/05 09:33:46;;;;;;;6.50;4.40;;;;;;;13.46;100.00;100605.95;105605;1267;99422;-86
2024/04/05 09:36:36;;;;;;;8.20;4.30;;;;;;;13.50;100.00;100606.00;105767;1264;102548;-85
2024/04/05 09:39:22;;;;;;;9.10;4.90;;;;;;;13.50;100.00;100600.13;105571;1264;99118;-88
2024/04/05 09:42:10;;;;;;;8.20;4.80;;;;;;;13.54;100.00;100602.05;105723;1263;105851;-89
2024/04/05 09:44:59;;;;;;;7.70;3.70;;;;;;;13.61;100.00;100603.98;105969;1269;97975;-85
2024/04/05 09:47:46;;;;;;;9.00;3.70;;;;;;;13.73;100.00;100603.56;106037;1264;97927;-88
2024/04/05 09:50:32;;;;;;;6.80;3.50;;;;;;;13.87;100.00;100600.41;106159;1264;101431;-90
2024/04/05 09:53:19;;;;;;;8.50;3.00;;;;;;;13.97;100.00;100600.77;106149;1267;100400;-87
2024/04/05 09:56:08;;;;;;;8.20;3.80;;;;;;;14.04;100.00;100595.44;106278;1267;99016;-84
2024/04/05 09:58:56;;;;;;;7.50;3.50;;;;;;;14.10;100.00;100601.56;105701;1264;98097;-85
2024/04/05 10:01:46;;;;;;;7.20;3.90;;;;;;;14.19;100.00;100603.16;105874;1266;98444;-87
2024/04/05 10:04:38;;;;;;;8.50;4.20;;;;;;;14.29;100.00;100601.42;106431;1267;110061;-88
2024/04/05 10:07:26;;;;;;;9.30;4.30;;;;;;;14.34;100.00;100597.11;106510;1267;101474;-90
2024/04/05 10:10:12;;;;;;;8.40;4.10;;;;;;;14.37;100.00;100595.98;106282;1267;99158;-90
2024/04/05 10:13:17;;;;;;;9.10;3.90;;;;;;;14.41;99.98;100592.69;106435;1270;97952;-85
2024/04/05 10:16:04;;;;;;;9.10;3.20;;;;;;;14.45;99.98;100596.20;105764;1267;98498;-83
2024/04/05 10:18:49;;;;;;;7.80;4.00;;;;;;;14.52;100.00;100595.15;106019;1263;101922;-84
2024/04/05 10:21:36;;;;;;;6.70;3.40;;;;;;;14.59;99.99;100591.06;105955;1264;101259;-82
2024/04/05 10:24:22;;;;;;;5.90;3.20;;;;;;;14.66;100.00;100591.86;105693;1264;98430;-82
2024/04/05 10:27:11;;;;;;;9.00;4.90;;;;;;;14.76;99.86;100590.45;105442;1269;98042;-82
2024/04/05 10:30:06;;;;;;;7.00;3.30;;;;;;;14.85;99.33;100590.92;105636;1267;97977;-82
2024/04/05 10:32:58;;;;;;;5.00;3.00;;;;;;;14.91;98.87;100592.16;105726;1264;101336;-82
2024/04/05 10:35:44;;;;;;;3.30;2.70;;;;;;;14.99;98.52;100596.90;105687;1264;100410;-82
2024/04/05 10:38:30;;;;;;;8.00;3.20;;;;;;;15.04;98.31;100599.41;105651;1264;99079;-83
2024/04/05 10:41:20;;;;;;;5.90;3.10;;;;;;;15.06;97.94;100600.06;105565;1264;98027;-84
2024/04/05 10:44:05;;;;;;;6.90;3.10;;;;;;;15.10;98.03;100600.08;105647;1264;98042;-84
2024/04/05 10:46:53;;;;;;;6.40;3.10;;;;;;;15.20;98.02;100605.24;105572;1267;101515;-83
2024/04/05 10:49:38;;;;;;;5.90;4.00;;;;;;;15.29;97.31;100603.54;105462;1264;100514;-83
2024/04/05 10:52:24;;;;;;;7.10;3.80;;;;;;;15.40;97.58;100601.29;105441;1264;97915;-83
2024/04/05 10:55:13;;;;;;;10.50;3.90;;;;;;;15.51;96.95;100599.02;105461;1268;97982;-83
2024/04/05 10:58:03;;;;;;;8.60;3.10;;;;;;;15.59;96.38;100600.38;105529;1270;97985;-83
2024/04/05 11:00:49;;;;;;;9.50;3.00;;;;;;;15.64;95.61;100596.77;105450;1270;103523;-83
2024/04/05 11:03:35;;;;;;;7.80;2.70;;;;;;;15.67;95.81;100598.73;105619;1264;101331;-83
2024/04/05 11:06:20;;;;;;;7.20;2.60;;;;;;;15.70;95.77;100599.86;105764;1264;97998;-82
2024/04/05 11:09:09;;;;;;;5.20;2.40;;;;;;;15.69;93.45;100602.53;105255;1268;98020;-85
2024/04/05 11:11:59;;;;;;;6.20;2.50;;;;;;;15.66;92.63;100599.95;105566;1264;97944;-85
2024/04/05 11:14:45;;;;;;;6.00;2.50;;;;;;;15.63;92.67;100600.60;105454;1264;102552;-83
2024/04/05 11:17:31;;;;;;;5.30;2.30;;;;;;;15.64;92.40;100601.86;105509;1270;100988;-82
2024/04/05 11:20:20;;;;;;;6.70;2.30;;;;;;;15.67;92.40;100601.55;105425;1262;98093;-82
2024/04/05 11:23:13;;;;;;;5.90;2.90;;;;;;;15.74;92.00;100599.34;105433;1264;98316;-83
2024/04/05 11:25:59;;;;;;;7.10;2.70;;;;;;;15.81;91.75;100598.08;105426;1264;97323;-83
2024/04/05 11:28:45;;;;;;;4.80;2.30;;;;;;;15.85;91.43;100600.73;105475;1264;101389;-82
2024/04/05 11:31:30;;;;;;;4.60;2.00;;;;;;;15.85;90.79;100603.94;105595;1267;99171;-83
2024/04/05 11:34:16;;;;;;;5.90;2.40;;;;;;;15.84;90.70;100605.53;105517;1263;97914;-83
2024/04/05 11:37:02;;;;;;;3.60;2.30;;;;;;;15.82;90.45;100611.62;105485;1265;97923;-85
2024/04/05 11:39:48;;;;;;;7.90;3.70;;;;;;;15.78;89.41;100613.48;105894;1286;97354;-87
2024/04/05 11:42:34;;;;;;;9.40;4.30;;;;;;;15.72;88.98;100610.73;106376;1264;102596;-88
2024/04/05 11:45:20;;;;;;;8.50;3.40;;;;;;;15.69;89.02;100608.52;106349;1264;100385;-87
2024/04/05 11:48:07;;;;;;;6.10;2.30;;;;;;;15.72;89.13;100605.00;106206;1264;99479;-87
2024/04/05 11:50:53;;;;;;;9.30;3.00;;;;;;;15.78;89.15;100600.25;105962;1264;98048;-87
2024/04/05 11:53:49;;;;;;;6.80;2.60;;;;;;;15.88;89.01;100598.89;106239;1264;97981;-88
2024/04/05 11:56:35;;;;;;;5.60;2.50;;;;;;;15.98;89.21;100596.46;106066;1263;103443;-87
2024/04/05 11:59:22;;;;;;;5.30;1.90;;;;;;;16.08;88.79;100598.25;105891;1263;100483;-86
2024/04/05 12:02:08;;;;;;;5.30;2.00;;;;;;;16.18;87.84;100599.64;105483;1264;98173;-84
2024/04/05 12:04:54;;;;;;;5.40;1.20;;;;;;;16.26;87.03;100604.80;105815;1264;98105;-88
2024/04/05 12:07:40;;;;;;;3.10;1.50;;;;;;;16.32;85.49;100607.32;105956;1264;98452;-87
2024/04/05 12:10:25;;;;;;;4.50;1.70;;;;;;;16.39;85.21;100610.66;106380;1264;103509;-83
2024/04/05 12:13:11;;;;;;;4.00;1.60;;;;;;;16.41;83.73;100612.88;105772;1262;99196;-82
2024/04/05 12:15:58;;;;;;;3.50;1.40;;;;;;;16.39;82.30;100617.19;105533;1263;98887;-82
2024/04/05 12:18:43;;;;;;;5.20;1.30;;;;;;;16.33;81.48;100619.30;105650;1266;98578;-83
2024/04/05 12:21:29;;;;;;;1.90;1.60;;;;;;;16.32;81.46;100616.23;105905;1263;99609;-86
2024/04/05 12:24:35;;;;;;;3.40;1.30;;;;;;;16.37;80.87;100614.01;106532;1267;103113;-93
2024/04/05 12:27:22;;;;;;;3.40;1.20;;;;;;;16.47;81.35;100613.70;106134;1263;100405;-90
2024/04/05 12:30:11;;;;;;;4.10;1.40;;;;;;;16.55;80.07;100614.02;106138;1264;99925;-92
2024/04/05 12:32:57;;;;;;;4.80;1.20;;;;;;;16.60;78.88;100606.09;106330;1264;96573;-91
2024/04/05 12:35:42;;;;;;;3.20;1.10;;;;;;;16.61;79.25;100609.91;106643;1263;97793;-92